Time;durP1;ratioP1;P1;durP2;ratioP2;P2;SDS_P1;SDS_P2;PMS_P1;PMS_P2;Temp;Humidity;BMP_temperature;BMP_pressure;BME280_temperature;BME280_humidity;BME280_pressure;Samples;Min_cycle;Max_cycle;Signal;HPM_P1;HPM_P2
2023/09/06 00:00:29;;;;;;;1.98;1.50;;;24.20;77.40;;;;;;4968383;28;20142;-81
2023/09/06 00:02:56;;;;;;;1.30;1.10;;;24.20;77.40;;;;;;4967399;28;20038;-80
2023/09/06 00:05:21;;;;;;;1.10;1.00;;;24.20;77.40;;;;;;4967966;28;20051;-81
2023/09/06 00:07:47;;;;;;;3.22;1.15;;;24.20;77.40;;;;;;4969574;28;20159;-81
2023/09/06 00:10:14;;;;;;;1.08;0.98;;;24.20;77.40;;;;;;4969204;28;20078;-80
2023/09/06 00:12:41;;;;;;;1.75;1.60;;;24.20;77.40;;;;;;4965598;28;20078;-80
2023/09/06 00:15:08;;;;;;;1.80;1.02;;;24.20;77.40;;;;;;4966312;28;20472;-80
2023/09/06 00:17:37;;;;;;;2.40;1.33;;;24.20;77.40;;;;;;4966646;28;20055;-80
2023/09/06 00:20:24;;;;;;;1.95;1.15;;;24.20;77.40;;;;;;4964664;28;20058;-80
2023/09/06 00:23:00;;;;;;;1.10;1.00;;;24.20;77.40;;;;;;4965978;28;20113;-80
2023/09/06 00:25:26;;;;;;;1.00;0.90;;;24.20;77.40;;;;;;4982278;28;20203;-80
2023/09/06 00:27:53;;;;;;;2.85;1.20;;;24.20;77.40;;;;;;4964766;28;20189;-80
2023/09/06 00:30:18;;;;;;;1.50;1.40;;;24.20;77.40;;;;;;4965835;28;20058;-80
2023/09/06 00:32:45;;;;;;;1.88;1.20;;;24.20;78.20;;;;;;4967101;28;20050;-81
2023/09/06 00:35:12;;;;;;;0.88;0.88;;;24.10;77.30;;;;;;4966019;28;20139;-80
2023/09/06 00:37:38;;;;;;;1.50;1.40;;;24.20;77.40;;;;;;4969939;28;20046;-80
2023/09/06 00:40:18;;;;;;;0.93;0.93;;;24.20;77.40;;;;;;4965409;28;20138;-80
2023/09/06 00:43:02;;;;;;;1.55;0.80;;;24.20;77.30;;;;;;4967415;28;20186;-80
2023/09/06 00:45:30;;;;;;;1.40;1.30;;;24.20;77.40;;;;;;4963041;28;20084;-81
2023/09/06 00:47:56;;;;;;;1.20;1.00;;;24.20;77.30;;;;;;4966372;28;20078;-80
2023/09/06 00:50:21;;;;;;;1.98;1.13;;;24.10;77.30;;;;;;4964310;28;20563;-80
2023/09/06 00:52:48;;;;;;;0.82;0.77;;;24.20;77.40;;;;;;4966052;28;20114;-80
2023/09/06 00:55:13;;;;;;;0.80;0.70;;;24.20;77.40;;;;;;4964531;28;20038;-80
2023/09/06 00:57:40;;;;;;;1.08;1.02;;;24.10;77.30;;;;;;4965940;28;20043;-80
2023/09/06 01:00:08;;;;;;;1.25;1.15;;;24.10;77.30;;;;;;4964151;28;21082;-80
2023/09/06 01:02:34;;;;;;;1.85;0.90;;;24.20;77.30;;;;;;4966725;28;20046;-81
2023/09/06 01:04:59;;;;;;;1.67;0.80;;;24.20;77.30;;;;;;4965836;28;20094;-80
2023/09/06 01:07:27;;;;;;;1.10;0.93;;;24.10;77.30;;;;;;4968755;28;20058;-81
2023/09/06 01:09:53;;;;;;;1.20;1.02;;;24.20;77.30;;;;;;4965790;28;20493;-80
2023/09/06 01:12:19;;;;;;;1.40;1.13;;;24.20;77.30;;;;;;4966238;28;20066;-80
2023/09/06 01:14:44;;;;;;;1.40;0.80;;;24.20;77.30;;;;;;4965790;28;20489;-80
2023/09/06 01:17:10;;;;;;;1.15;1.05;;;24.10;77.20;;;;;;4965738;28;20039;-80
2023/09/06 01:19:38;;;;;;;1.27;0.90;;;24.10;77.20;;;;;;4965962;28;20412;-81
2023/09/06 01:22:26;;;;;;;0.98;0.90;;;24.10;77.20;;;;;;4965083;28;20053;-79
2023/09/06 01:24:51;;;;;;;2.40;1.30;;;24.10;77.20;;;;;;4967547;28;20047;-80
2023/09/06 01:27:17;;;;;;;1.40;1.10;;;24.20;77.30;;;;;;4964994;28;20046;-80
2023/09/06 01:29:42;;;;;;;1.00;0.95;;;24.20;77.30;;;;;;4966182;28;20042;-81
2023/09/06 01:32:08;;;;;;;1.17;0.98;;;24.10;77.10;;;;;;4963460;28;20075;-80
2023/09/06 01:34:33;;;;;;;1.00;0.90;;;24.10;77.10;;;;;;4968290;28;20401;-81
2023/09/06 01:36:59;;;;;;;1.25;1.15;;;24.10;77.10;;;;;;4964617;28;20088;-81
2023/09/06 01:39:25;;;;;;;1.17;1.08;;;24.20;77.30;;;;;;4966199;28;20062;-80
2023/09/06 01:41:50;;;;;;;2.13;1.35;;;24.20;77.20;;;;;;4965992;28;20571;-80
2023/09/06 01:44:16;;;;;;;1.40;1.10;;;24.10;77.90;;;;;;4967039;28;20428;-80
2023/09/06 01:46:41;;;;;;;1.17;1.00;;;24.20;77.20;;;;;;4964913;28;20043;-80
2023/09/06 01:49:08;;;;;;;1.95;1.13;;;24.10;77.10;;;;;;4966998;28;20059;-79
2023/09/06 01:51:34;;;;;;;1.35;1.00;;;24.10;77.00;;;;;;4962646;28;20111;-80
2023/09/06 01:54:04;;;;;;;1.05;0.88;;;24.10;77.00;;;;;;4966087;28;20053;-80
2023/09/06 01:56:30;;;;;;;1.05;0.95;;;24.10;77.00;;;;;;4962656;28;20918;-80
2023/09/06 01:58:55;;;;;;;2.30;0.95;;;24.10;77.00;;;;;;4965892;28;20055;-80
2023/09/06 02:01:21;;;;;;;1.25;1.10;;;24.10;77.10;;;;;;4968808;28;20058;-81
2023/09/06 02:03:46;;;;;;;1.63;0.88;;;24.10;77.00;;;;;;4963667;28;20509;-81
2023/09/06 02:06:12;;;;;;;1.08;1.02;;;24.10;77.00;;;;;;4963035;28;20062;-80
2023/09/06 02:08:39;;;;;;;1.08;0.98;;;24.20;77.00;;;;;;4964374;28;20101;-81
2023/09/06 02:11:06;;;;;;;1.27;0.90;;;24.10;77.00;;;;;;4965685;28;20567;-81
2023/09/06 02:13:32;;;;;;;0.93;0.93;;;24.10;76.90;;;;;;4964196;28;20093;-81
2023/09/06 02:15:58;;;;;;;0.75;0.70;;;24.10;76.90;;;;;;4963997;28;20047;-80
2023/09/06 02:18:26;;;;;;;1.88;1.13;;;24.10;76.90;;;;;;4960327;28;20047;-81
2023/09/06 02:20:54;;;;;;;0.95;0.85;;;24.10;77.80;;;;;;4962819;28;20501;-81
2023/09/06 02:23:19;;;;;;;1.52;1.02;;;24.10;77.70;;;;;;4964966;28;20129;-80
2023/09/06 02:25:45;;;;;;;1.00;0.88;;;24.10;76.90;;;;;;4958497;28;20035;-81
2023/09/06 02:28:10;;;;;;;0.95;0.68;;;24.10;76.90;;;;;;4966981;28;20093;-80
2023/09/06 02:30:36;;;;;;;1.48;0.90;;;24.10;76.90;;;;;;4966050;28;20105;-81
2023/09/06 02:33:04;;;;;;;1.42;0.82;;;24.10;76.90;;;;;;4964472;28;20571;-81
2023/09/06 02:35:29;;;;;;;1.33;1.08;;;24.10;77.00;;;;;;4964788;28;20055;-81
2023/09/06 02:37:55;;;;;;;1.00;0.80;;;24.10;76.90;;;;;;4965848;28;20041;-81
2023/09/06 02:40:20;;;;;;;1.05;0.95;;;24.20;77.00;;;;;;4967360;28;20043;-80
2023/09/06 02:42:48;;;;;;;0.88;0.88;;;24.10;76.90;;;;;;4964103;28;20050;-80
2023/09/06 02:45:14;;;;;;;0.80;0.77;;;24.10;76.90;;;;;;4964235;28;20050;-80
2023/09/06 02:47:50;;;;;;;1.10;0.82;;;24.10;76.90;;;;;;4965003;28;20050;-81
2023/09/06 02:50:23;;;;;;;0.98;0.90;;;24.10;77.00;;;;;;4963870;28;20048;-81
2023/09/06 02:52:50;;;;;;;1.00;0.75;;;24.10;76.80;;;;;;4965528;28;20067;-80
2023/09/06 02:55:16;;;;;;;0.88;0.80;;;24.10;77.00;;;;;;4965698;28;20042;-80
2023/09/06 02:57:42;;;;;;;1.17;0.75;;;24.10;76.80;;;;;;4964379;28;20045;-81
2023/09/06 03:00:18;;;;;;;1.40;1.15;;;24.10;76.90;;;;;;4959968;28;20173;-80
2023/09/06 03:02:45;;;;;;;1.55;1.10;;;24.10;76.90;;;;;;4963498;28;20086;-80
2023/09/06 03:05:16;;;;;;;1.50;1.05;;;24.10;77.00;;;;;;4964308;28;20038;-78
2023/09/06 03:07:42;;;;;;;1.00;0.80;;;24.10;76.90;;;;;;4965290;28;20094;-80
2023/09/06 03:10:09;;;;;;;1.27;0.90;;;24.10;76.90;;;;;;4965662;28;20042;-80
2023/09/06 03:12:35;;;;;;;1.73;1.30;;;24.10;76.80;;;;;;4963146;28;20120;-80
2023/09/06 03:15:01;;;;;;;1.23;1.13;;;24.10;76.90;;;;;;4963387;28;20051;-81
2023/09/06 03:17:26;;;;;;;1.00;0.90;;;24.10;77.00;;;;;;4963209;28;20046;-81
2023/09/06 03:19:53;;;;;;;1.08;0.90;;;24.10;76.90;;;;;;4964114;28;20047;-80
2023/09/06 03:22:20;;;;;;;0.98;0.85;;;24.10;76.80;;;;;;4964706;28;20051;-80
2023/09/06 03:24:45;;;;;;;2.25;1.10;;;24.10;76.90;;;;;;4962478;28;20118;-80
2023/09/06 03:27:16;;;;;;;1.13;1.02;;;24.10;76.80;;;;;;4963897;28;20089;-80
2023/09/06 03:29:42;;;;;;;1.48;0.80;;;24.10;76.90;;;;;;4966615;28;20493;-81
2023/09/06 03:32:08;;;;;;;2.22;0.98;;;24.10;76.80;;;;;;4967067;28;20047;-80
2023/09/06 03:34:37;;;;;;;1.02;0.93;;;24.10;77.10;;;;;;4969425;28;20551;-80
2023/09/06 03:37:05;;;;;;;0.80;0.77;;;24.10;76.80;;;;;;4969000;28;20046;-80
2023/09/06 03:39:37;;;;;;;1.65;0.98;;;24.10;76.80;;;;;;4967107;28;20054;-81
2023/09/06 03:42:08;;;;;;;1.02;0.73;;;24.10;76.80;;;;;;4965034;28;20139;-81
2023/09/06 03:44:34;;;;;;;0.98;0.90;;;24.10;76.80;;;;;;4967242;28;20054;-81
2023/09/06 03:47:00;;;;;;;1.27;1.00;;;24.10;77.00;;;;;;4965953;28;20039;-81
2023/09/06 03:49:26;;;;;;;1.30;0.93;;;24.10;77.10;;;;;;4966523;28;20054;-81
2023/09/06 03:51:52;;;;;;;1.08;1.08;;;24.10;77.10;;;;;;4968173;28;20046;-81
2023/09/06 03:54:18;;;;;;;2.55;1.00;;;24.10;77.00;;;;;;4963711;28;20039;-80
2023/09/06 03:56:43;;;;;;;1.08;0.98;;;24.10;77.10;;;;;;4964433;28;20043;-81
2023/09/06 03:59:09;;;;;;;3.33;1.52;;;24.10;77.00;;;;;;4967921;28;20126;-81
2023/09/06 04:01:36;;;;;;;0.90;0.90;;;24.10;77.10;;;;;;4967719;28;20480;-81
2023/09/06 04:04:01;;;;;;;1.42;1.10;;;24.10;77.00;;;;;;4966973;28;20039;-81
2023/09/06 04:06:29;;;;;;;3.28;1.02;;;24.10;76.90;;;;;;4965506;28;20069;-80
2023/09/06 04:08:55;;;;;;;1.13;0.80;;;24.10;77.10;;;;;;4968977;28;20039;-80
2023/09/06 04:11:20;;;;;;;1.23;1.02;;;24.10;77.10;;;;;;4966531;28;20042;-80
2023/09/06 04:13:46;;;;;;;1.67;1.00;;;24.10;77.10;;;;;;4965352;28;20042;-81
2023/09/06 04:16:11;;;;;;;1.35;0.93;;;24.10;77.80;;;;;;4965937;28;20114;-81
2023/09/06 04:18:37;;;;;;;1.33;1.20;;;24.10;77.00;;;;;;4963449;28;20137;-80
2023/09/06 04:21:08;;;;;;;1.00;1.00;;;24.00;76.90;;;;;;4964345;28;20165;-80
2023/09/06 04:23:36;;;;;;;0.80;0.80;;;24.00;77.00;;;;;;4966709;28;20063;-80
2023/09/06 04:26:05;;;;;;;0.85;0.80;;;24.10;77.00;;;;;;4969608;28;20046;-81
2023/09/06 04:28:30;;;;;;;1.00;0.90;;;24.10;77.20;;;;;;4965416;28;20456;-80
2023/09/06 04:30:57;;;;;;;1.50;1.10;;;24.10;77.00;;;;;;4968112;28;20035;-81
2023/09/06 04:33:24;;;;;;;2.08;1.10;;;24.10;77.10;;;;;;4966116;28;20523;-80
2023/09/06 04:35:49;;;;;;;1.10;0.82;;;24.00;76.90;;;;;;4964598;28;20046;-80
2023/09/06 04:38:16;;;;;;;1.27;1.00;;;24.10;76.90;;;;;;4964769;28;20042;-80
2023/09/06 04:40:45;;;;;;;1.20;1.00;;;24.10;76.90;;;;;;4966665;28;20051;-80
2023/09/06 04:43:12;;;;;;;1.50;1.15;;;24.10;77.00;;;;;;4968407;28;20038;-81
2023/09/06 04:45:37;;;;;;;1.20;0.80;;;24.10;77.00;;;;;;4966081;28;20043;-80
2023/09/06 04:48:08;;;;;;;1.40;0.95;;;24.00;76.80;;;;;;4966629;28;20574;-80
2023/09/06 04:50:35;;;;;;;1.30;0.80;;;24.00;76.90;;;;;;4966417;28;20125;-81
2023/09/06 04:53:01;;;;;;;1.25;0.90;;;24.10;76.90;;;;;;4963187;28;20058;-80
2023/09/06 04:55:26;;;;;;;1.48;0.80;;;24.00;77.00;;;;;;4969198;28;20097;-83
2023/09/06 04:57:54;;;;;;;1.77;0.93;;;24.00;76.90;;;;;;4966421;28;20043;-82
2023/09/06 05:00:24;;;;;;;1.60;0.95;;;24.10;76.70;;;;;;4964001;28;20097;-82
2023/09/06 05:02:51;;;;;;;1.65;1.00;;;24.00;76.80;;;;;;4965043;28;20082;-80
2023/09/06 05:05:17;;;;;;;0.70;0.70;;;24.10;76.60;;;;;;4966593;28;20479;-81
2023/09/06 05:07:44;;;;;;;0.85;0.80;;;24.00;76.90;;;;;;4965201;28;20046;-81
2023/09/06 05:10:10;;;;;;;0.75;0.75;;;24.10;76.80;;;;;;4967926;28;20051;-81
2023/09/06 05:12:36;;;;;;;1.15;0.93;;;24.10;76.70;;;;;;4966463;28;20046;-81
2023/09/06 05:15:02;;;;;;;1.30;0.93;;;24.00;76.80;;;;;;4966376;28;20550;-81
2023/09/06 05:17:28;;;;;;;0.80;0.80;;;24.10;77.00;;;;;;4963485;28;20049;-81
2023/09/06 05:19:54;;;;;;;1.98;1.27;;;24.00;77.00;;;;;;4964734;28;20420;-81
2023/09/06 05:22:19;;;;;;;1.00;0.90;;;24.00;77.10;;;;;;4966752;28;20077;-79
2023/09/06 05:24:46;;;;;;;1.73;1.00;;;24.00;77.30;;;;;;4964449;28;20497;-81
2023/09/06 05:27:12;;;;;;;1.00;0.88;;;24.00;77.30;;;;;;4964492;28;20460;-81
2023/09/06 05:29:37;;;;;;;2.00;1.00;;;24.00;76.90;;;;;;4978965;28;20444;-81
2023/09/06 05:32:03;;;;;;;1.00;0.90;;;24.00;76.90;;;;;;4962829;28;20057;-81
2023/09/06 05:34:29;;;;;;;1.20;1.00;;;24.00;77.00;;;;;;4968122;28;20519;-80
2023/09/06 05:36:55;;;;;;;2.95;1.10;;;24.00;76.90;;;;;;4967422;28;20090;-81
2023/09/06 05:39:21;;;;;;;1.80;1.20;;;24.00;77.00;;;;;;4965374;28;20039;-80
2023/09/06 05:41:47;;;;;;;2.00;0.95;;;24.00;77.10;;;;;;4966342;28;20046;-81
2023/09/06 05:44:13;;;;;;;0.82;0.82;;;24.00;77.30;;;;;;4964946;28;20043;-81
2023/09/06 05:46:38;;;;;;;2.78;0.98;;;24.00;76.90;;;;;;4966272;28;20089;-80
2023/09/06 05:49:05;;;;;;;1.40;1.10;;;24.00;77.10;;;;;;4964333;28;20424;-80
2023/09/06 05:51:31;;;;;;;1.48;0.90;;;24.00;77.00;;;;;;4963561;28;20081;-79
2023/09/06 05:53:58;;;;;;;1.33;1.10;;;24.00;76.90;;;;;;4963549;28;20041;-80
2023/09/06 05:56:24;;;;;;;1.27;1.08;;;24.00;77.00;;;;;;4965156;28;20047;-79
2023/09/06 05:58:49;;;;;;;3.17;0.95;;;24.00;77.00;;;;;;4962663;28;20118;-80
2023/09/06 06:01:17;;;;;;;0.90;0.90;;;24.00;76.90;;;;;;4966969;28;20054;-80
2023/09/06 06:03:43;;;;;;;1.40;1.23;;;24.00;76.90;;;;;;4964362;28;20039;-80
2023/09/06 06:06:10;;;;;;;1.50;1.40;;;24.00;76.80;;;;;;4966037;28;20055;-80
2023/09/06 06:08:37;;;;;;;1.42;1.08;;;24.00;76.80;;;;;;4965501;28;20051;-80
2023/09/06 06:11:03;;;;;;;1.30;1.20;;;24.00;76.90;;;;;;4964472;28;20097;-80
2023/09/06 06:13:29;;;;;;;1.15;1.02;;;24.00;76.70;;;;;;4963045;28;20513;-79
2023/09/06 06:15:54;;;;;;;1.75;0.95;;;24.00;76.80;;;;;;4963351;28;20058;-79
2023/09/06 06:18:24;;;;;;;2.03;1.15;;;24.00;76.70;;;;;;4963067;28;20046;-80
2023/09/06 06:20:50;;;;;;;1.30;1.20;;;24.00;76.70;;;;;;4963721;28;20051;-80
2023/09/06 06:23:15;;;;;;;1.00;1.00;;;24.00;76.70;;;;;;4959544;28;20524;-80
2023/09/06 06:25:41;;;;;;;1.60;1.05;;;24.00;76.60;;;;;;4965411;28;20055;-80
2023/09/06 06:28:07;;;;;;;1.73;1.50;;;24.00;76.60;;;;;;4967030;28;20125;-78
2023/09/06 06:30:33;;;;;;;2.55;1.23;;;24.00;76.40;;;;;;4965806;28;20073;-77
2023/09/06 06:33:00;;;;;;;3.20;1.23;;;24.00;76.50;;;;;;4965574;28;20078;-76
2023/09/06 06:35:26;;;;;;;1.63;0.90;;;24.00;77.40;;;;;;4979782;28;20097;-77
2023/09/06 06:37:51;;;;;;;1.42;1.33;;;24.10;76.70;;;;;;4966133;28;20504;-77
2023/09/06 06:40:17;;;;;;;1.45;1.35;;;24.00;76.90;;;;;;4962422;28;20130;-77
2023/09/06 06:42:44;;;;;;;2.00;1.30;;;24.00;77.60;;;;;;4963675;28;20501;-76
2023/09/06 06:45:10;;;;;;;1.83;1.10;;;24.10;76.70;;;;;;4962151;28;20635;-77
2023/09/06 06:47:36;;;;;;;1.38;1.27;;;24.10;76.80;;;;;;4960296;28;20053;-77
2023/09/06 06:50:06;;;;;;;1.95;1.10;;;24.10;77.00;;;;;;4966696;28;20046;-77
2023/09/06 06:52:36;;;;;;;2.10;1.63;;;24.00;77.00;;;;;;4965353;28;20524;-76
2023/09/06 06:55:03;;;;;;;1.48;1.13;;;24.00;76.90;;;;;;4964347;28;20155;-78
2023/09/06 06:57:30;;;;;;;6.30;1.60;;;24.00;76.70;;;;;;4962417;28;20531;-77
2023/09/06 06:59:55;;;;;;;1.20;1.10;;;24.00;76.70;;;;;;4965202;28;20042;-78
2023/09/06 07:02:21;;;;;;;1.83;1.30;;;24.10;76.80;;;;;;4963639;28;20043;-77
2023/09/06 07:04:47;;;;;;;2.35;1.50;;;24.00;76.50;;;;;;4962571;28;20089;-78
2023/09/06 07:07:13;;;;;;;1.48;1.38;;;24.00;76.50;;;;;;4966983;28;20140;-78
2023/09/06 07:09:38;;;;;;;2.17;1.30;;;24.10;76.50;;;;;;4963140;28;20051;-77
2023/09/06 07:12:04;;;;;;;2.97;1.67;;;24.10;76.50;;;;;;4965182;28;20054;-77
2023/09/06 07:14:29;;;;;;;1.63;1.20;;;24.10;76.60;;;;;;4968354;28;20059;-77
2023/09/06 07:16:55;;;;;;;2.55;1.20;;;24.10;76.50;;;;;;4969167;28;20038;-77
2023/09/06 07:19:21;;;;;;;1.50;1.35;;;24.10;76.30;;;;;;4970892;28;20125;-77
2023/09/06 07:21:47;;;;;;;3.08;1.67;;;24.10;76.30;;;;;;4970045;28;20038;-77
2023/09/06 07:24:14;;;;;;;1.55;1.42;;;24.10;76.50;;;;;;4964483;28;20126;-77
2023/09/06 07:26:40;;;;;;;2.58;1.70;;;24.10;76.40;;;;;;4968007;28;20089;-77
2023/09/06 07:29:05;;;;;;;4.88;1.80;;;24.10;76.60;;;;;;4967727;28;20512;-78
2023/09/06 07:31:32;;;;;;;2.63;1.40;;;24.10;76.70;;;;;;4969531;28;20047;-77
2023/09/06 07:33:58;;;;;;;2.78;1.70;;;24.10;76.70;;;;;;4968724;28;20149;-77
2023/09/06 07:36:23;;;;;;;2.70;1.63;;;24.10;76.30;;;;;;4964518;28;20118;-77
2023/09/06 07:38:54;;;;;;;2.28;1.52;;;24.10;76.30;;;;;;4965453;28;20057;-77
2023/09/06 07:41:20;;;;;;;2.35;1.20;;;24.10;76.30;;;;;;4969799;28;20063;-78
2023/09/06 07:43:46;;;;;;;2.72;1.42;;;24.10;76.40;;;;;;4968589;28;20905;-77
2023/09/06 07:46:12;;;;;;;3.55;1.20;;;24.10;76.50;;;;;;4967133;28;21036;-77
2023/09/06 07:48:38;;;;;;;1.77;1.25;;;24.10;76.70;;;;;;4968318;28;20494;-78
2023/09/06 07:51:04;;;;;;;1.50;1.27;;;24.10;76.80;;;;;;4982328;28;20126;-78
2023/09/06 07:53:30;;;;;;;2.33;1.77;;;24.10;76.90;;;;;;4967804;28;20580;-77
2023/09/06 07:55:55;;;;;;;2.00;1.42;;;24.10;76.90;;;;;;4968071;28;20090;-77
2023/09/06 07:58:21;;;;;;;2.65;1.40;;;24.10;76.90;;;;;;4969139;28;20042;-77
2023/09/06 08:00:47;;;;;;;1.92;1.33;;;24.10;77.00;;;;;;4967328;28;21157;-78
2023/09/06 08:03:12;;;;;;;1.40;1.13;;;24.10;77.10;;;;;;4951850;28;20055;-77
2023/09/06 08:05:38;;;;;;;2.60;2.00;;;24.10;77.80;;;;;;4967005;28;20600;-77
2023/09/06 08:08:10;;;;;;;2.42;1.50;;;24.10;77.10;;;;;;4969531;28;20046;-78
2023/09/06 08:10:39;;;;;;;2.85;1.40;;;24.10;76.90;;;;;;4969151;28;20134;-77
2023/09/06 08:13:05;;;;;;;1.42;1.33;;;24.10;76.70;;;;;;4968687;28;20050;-78
2023/09/06 08:15:31;;;;;;;1.63;1.38;;;24.10;76.60;;;;;;4968937;28;20042;-77
2023/09/06 08:17:57;;;;;;;3.00;1.83;;;24.10;76.40;;;;;;4967095;28;20528;-78
2023/09/06 08:20:22;;;;;;;1.98;1.30;;;24.10;76.30;;;;;;4968478;28;20043;-78
2023/09/06 08:22:48;;;;;;;2.08;1.20;;;24.10;76.30;;;;;;4967502;28;20443;-77
2023/09/06 08:25:14;;;;;;;1.98;1.63;;;24.10;76.40;;;;;;4969938;28;20055;-78
2023/09/06 08:27:41;;;;;;;1.63;1.52;;;24.10;76.40;;;;;;4967207;28;20582;-77
2023/09/06 08:30:11;;;;;;;3.10;1.58;;;24.10;77.10;;;;;;4966867;28;20051;-78
2023/09/06 08:32:38;;;;;;;1.40;1.30;;;24.10;76.30;;;;;;4965603;28;20045;-77
2023/09/06 08:35:04;;;;;;;1.83;1.40;;;24.20;76.40;;;;;;4967530;28;20133;-78
2023/09/06 08:37:30;;;;;;;1.25;1.15;;;24.20;77.20;;;;;;4966623;28;20099;-78
2023/09/06 08:39:56;;;;;;;1.58;1.23;;;24.20;76.40;;;;;;4967917;28;20039;-77
2023/09/06 08:42:21;;;;;;;2.35;1.50;;;24.20;76.30;;;;;;4967169;28;20054;-78
2023/09/06 08:44:48;;;;;;;3.03;1.80;;;24.20;76.20;;;;;;4966211;28;20050;-77
2023/09/06 08:47:14;;;;;;;2.35;1.40;;;24.20;76.20;;;;;;4968295;28;20180;-77
2023/09/06 08:49:39;;;;;;;1.80;1.50;;;24.20;76.30;;;;;;4967120;28;20066;-77
2023/09/06 08:52:05;;;;;;;1.45;1.20;;;24.20;76.20;;;;;;4966874;28;20051;-78
2023/09/06 08:54:31;;;;;;;2.08;1.25;;;24.30;76.30;;;;;;4968729;28;20121;-77
2023/09/06 08:56:57;;;;;;;3.15;1.60;;;24.30;76.30;;;;;;4966277;28;20543;-78
2023/09/06 08:59:22;;;;;;;1.83;1.02;;;24.20;76.30;;;;;;4966743;28;20382;-78
2023/09/06 09:01:48;;;;;;;4.35;1.80;;;24.20;76.20;;;;;;4968620;28;20090;-78
2023/09/06 09:04:14;;;;;;;4.13;1.73;;;24.30;76.30;;;;;;4964833;28;20031;-78
2023/09/06 09:06:43;;;;;;;2.03;1.70;;;24.30;76.30;;;;;;4967760;28;20046;-78
2023/09/06 09:09:16;;;;;;;2.72;1.55;;;24.20;76.20;;;;;;4968249;28;20611;-77
2023/09/06 09:11:51;;;;;;;1.77;1.40;;;24.20;76.20;;;;;;4961411;28;20074;-77
2023/09/06 09:14:21;;;;;;;2.25;1.25;;;24.30;76.30;;;;;;4982480;28;20634;-78
2023/09/06 09:16:54;;;;;;;1.50;1.25;;;24.30;76.30;;;;;;4967740;28;20039;-78
2023/09/06 09:19:23;;;;;;;1.25;1.15;;;24.20;76.20;;;;;;4968527;28;20409;-77
2023/09/06 09:21:51;;;;;;;1.60;1.27;;;24.30;76.30;;;;;;4948670;28;20045;-78
2023/09/06 09:24:28;;;;;;;2.45;1.38;;;24.20;76.10;;;;;;4950860;28;20158;-78
2023/09/06 09:26:56;;;;;;;2.13;1.55;;;24.20;76.10;;;;;;4962688;28;20522;-78
2023/09/06 09:29:22;;;;;;;1.30;1.05;;;24.30;76.10;;;;;;4966811;28;20047;-78
2023/09/06 09:31:48;;;;;;;2.00;1.15;;;24.30;76.30;;;;;;4966746;28;20468;-78
2023/09/06 09:34:13;;;;;;;2.25;1.27;;;24.30;76.60;;;;;;4968874;28;20043;-78
2023/09/06 09:36:39;;;;;;;1.38;1.27;;;24.30;76.60;;;;;;4964329;28;20039;-77
2023/09/06 09:39:08;;;;;;;1.15;1.05;;;24.30;77.20;;;;;;4967577;28;20440;-79
2023/09/06 09:41:34;;;;;;;1.25;1.15;;;24.30;77.00;;;;;;4963674;28;20035;-76
2023/09/06 09:44:19;;;;;;;1.52;1.30;;;24.30;76.80;;;;;;4981990;28;20054;-79
2023/09/06 09:46:45;;;;;;;2.90;1.58;;;24.30;77.00;;;;;;4967455;28;20123;-78
2023/09/06 09:49:12;;;;;;;4.97;2.20;;;24.30;77.10;;;;;;4968770;28;20405;-78
2023/09/06 09:51:38;;;;;;;2.33;2.05;;;24.30;78.30;;;;;;4964050;28;20094;-79
2023/09/06 09:54:04;;;;;;;5.10;2.17;;;24.30;78.60;;;;;;4966145;28;20489;-78
2023/09/06 09:56:32;;;;;;;4.07;2.50;;;24.40;79.50;;;;;;4965679;28;20098;-77
2023/09/06 09:58:58;;;;;;;2.95;2.05;;;24.40;81.00;;;;;;4964039;28;20051;-78
2023/09/06 10:01:23;;;;;;;7.50;2.58;;;24.40;80.90;;;;;;4966578;28;20542;-77
2023/09/06 10:03:49;;;;;;;2.15;1.63;;;24.40;80.10;;;;;;4962839;28;20038;-80
2023/09/06 10:06:15;;;;;;;2.80;1.90;;;24.40;80.90;;;;;;4964858;28;20480;-79
2023/09/06 10:08:41;;;;;;;1.95;1.60;;;24.40;79.50;;;;;;4961664;28;20896;-79
2023/09/06 10:11:07;;;;;;;1.95;1.73;;;24.40;79.60;;;;;;4965021;28;20046;-79
2023/09/06 10:13:34;;;;;;;1.75;1.42;;;24.40;78.30;;;;;;4967320;28;20066;-79
2023/09/06 10:15:59;;;;;;;1.48;1.25;;;24.40;78.10;;;;;;4964413;28;20050;-79
2023/09/06 10:18:25;;;;;;;2.28;1.60;;;24.50;78.00;;;;;;4965314;28;20043;-79
2023/09/06 10:20:50;;;;;;;2.92;1.40;;;24.40;77.90;;;;;;4979605;28;20051;-79
2023/09/06 10:23:17;;;;;;;1.73;1.30;;;24.40;77.90;;;;;;4966547;28;20051;-79
2023/09/06 10:25:49;;;;;;;2.13;1.50;;;24.40;77.90;;;;;;4946924;28;20047;-79
2023/09/06 10:28:14;;;;;;;1.85;1.67;;;24.40;77.70;;;;;;4964247;28;20418;-79
2023/09/06 10:30:44;;;;;;;2.08;1.20;;;24.50;77.80;;;;;;4965806;28;20551;-79
2023/09/06 10:33:33;;;;;;;2.45;1.70;;;24.50;77.70;;;;;;4962866;28;20058;-79
2023/09/06 10:36:00;;;;;;;1.73;1.63;;;24.50;77.60;;;;;;4956868;28;20054;-79
2023/09/06 10:38:27;;;;;;;1.40;1.30;;;24.50;77.40;;;;;;4965698;28;20084;-79
2023/09/06 10:40:55;;;;;;;2.38;1.30;;;24.60;77.50;;;;;;4962552;28;20077;-80
2023/09/06 10:43:23;;;;;;;1.30;1.20;;;24.50;77.40;;;;;;4964222;28;20046;-80
2023/09/06 10:46:27;;;;;;;1.30;1.20;;;24.50;77.40;;;;;;4959166;28;22533;-80
2023/09/06 10:49:25;;;;;;;1.40;1.30;;;24.50;77.30;;;;;;4957165;28;20039;-80
2023/09/06 10:52:01;;;;;;;1.27;1.15;;;24.60;77.20;;;;;;4961653;28;20097;-80
2023/09/06 10:54:47;;;;;;;1.38;1.08;;;24.50;77.10;;;;;;4962703;28;20085;-80
2023/09/06 10:57:14;;;;;;;1.98;1.30;;;24.50;77.00;;;;;;4963704;28;20047;-81
2023/09/06 10:59:58;;;;;;;1.70;1.20;;;24.50;76.80;;;;;;4965642;28;20042;-80
2023/09/06 11:02:27;;;;;;;1.35;1.15;;;24.50;76.70;;;;;;4966301;28;20567;-79
2023/09/06 11:05:16;;;;;;;1.10;0.90;;;24.50;76.60;;;;;;4964016;28;20086;-80
2023/09/06 11:07:43;;;;;;;1.13;1.02;;;24.50;76.60;;;;;;4967617;28;20043;-80
2023/09/06 11:10:09;;;;;;;2.13;1.23;;;24.50;76.60;;;;;;4978269;28;20102;-80
2023/09/06 11:12:35;;;;;;;1.35;1.23;;;24.50;76.60;;;;;;4959320;28;21723;-80
2023/09/06 11:15:01;;;;;;;1.63;1.02;;;24.50;76.60;;;;;;4962312;28;20046;-80
2023/09/06 11:17:26;;;;;;;1.25;1.13;;;24.50;76.60;;;;;;4961805;28;20042;-80
2023/09/06 11:19:52;;;;;;;1.52;1.10;;;24.50;76.50;;;;;;4964193;28;20847;-80
2023/09/06 11:22:18;;;;;;;1.48;1.38;;;24.60;76.40;;;;;;4963314;28;20422;-80
2023/09/06 11:24:44;;;;;;;1.20;1.10;;;24.60;76.40;;;;;;4964589;28;20159;-80
2023/09/06 11:27:16;;;;;;;1.42;1.20;;;24.60;76.30;;;;;;4963935;28;20126;-79
2023/09/06 11:29:42;;;;;;;1.70;1.17;;;24.60;76.40;;;;;;4963745;28;20133;-81
2023/09/06 11:32:12;;;;;;;1.48;1.33;;;24.60;76.50;;;;;;4963734;28;20051;-80
2023/09/06 11:34:42;;;;;;;1.50;1.10;;;24.60;76.30;;;;;;4965347;28;20045;-81
2023/09/06 11:37:10;;;;;;;2.58;1.50;;;24.60;76.30;;;;;;4964250;28;20047;-80
2023/09/06 11:39:39;;;;;;;0.95;0.90;;;24.60;76.50;;;;;;4962407;28;20122;-81
2023/09/06 11:42:08;;;;;;;1.30;1.10;;;24.60;76.70;;;;;;4959255;28;20051;-81
2023/09/06 11:44:35;;;;;;;1.98;1.10;;;24.70;76.50;;;;;;4958335;28;20063;-78
2023/09/06 11:47:04;;;;;;;1.42;1.00;;;24.70;76.40;;;;;;4958637;28;20172;-80
2023/09/06 11:49:32;;;;;;;1.30;1.20;;;24.70;76.50;;;;;;4966885;28;20115;-81
2023/09/06 11:52:00;;;;;;;2.45;1.10;;;24.70;76.10;;;;;;4966150;28;20462;-80
2023/09/06 11:54:28;;;;;;;1.85;1.23;;;24.70;76.10;;;;;;4967571;28;20226;-80
2023/09/06 11:56:54;;;;;;;1.88;1.05;;;24.70;76.20;;;;;;4964142;28;20053;-80
2023/09/06 11:59:20;;;;;;;1.45;1.10;;;24.70;76.20;;;;;;4968685;28;20130;-81
2023/09/06 12:01:46;;;;;;;1.30;1.00;;;24.70;76.20;;;;;;4965920;28;20563;-81
2023/09/06 12:04:16;;;;;;;2.58;0.90;;;24.70;76.10;;;;;;4969438;28;20047;-80
2023/09/06 12:06:42;;;;;;;3.20;1.23;;;24.70;76.10;;;;;;4964935;28;20039;-80
2023/09/06 12:09:12;;;;;;;2.58;1.25;;;24.70;76.10;;;;;;4956117;28;20039;-80
2023/09/06 12:11:38;;;;;;;0.77;0.70;;;24.70;76.10;;;;;;4965027;28;20039;-81
2023/09/06 12:14:03;;;;;;;1.15;0.88;;;24.70;76.00;;;;;;4969916;28;20055;-80
2023/09/06 12:16:31;;;;;;;1.98;1.08;;;24.70;76.10;;;;;;4965863;28;20057;-80
2023/09/06 12:18:56;;;;;;;1.25;1.13;;;24.70;76.10;;;;;;4968213;28;20150;-80
2023/09/06 12:21:22;;;;;;;1.30;1.20;;;24.70;75.90;;;;;;4968760;28;20066;-80
2023/09/06 12:23:47;;;;;;;1.35;1.02;;;24.70;76.10;;;;;;4964472;28;20177;-80
2023/09/06 12:26:15;;;;;;;1.20;1.00;;;24.70;76.10;;;;;;4968560;28;20047;-80
2023/09/06 12:28:40;;;;;;;1.08;0.90;;;24.70;76.10;;;;;;4965376;28;20163;-80
2023/09/06 12:31:07;;;;;;;1.08;1.00;;;24.70;76.10;;;;;;4970311;28;20046;-80
2023/09/06 12:33:32;;;;;;;2.95;1.23;;;24.70;76.10;;;;;;4967849;28;20051;-80
2023/09/06 12:35:59;;;;;;;1.20;1.00;;;24.70;76.10;;;;;;4966808;28;20047;-80
2023/09/06 12:38:29;;;;;;;1.02;0.90;;;24.70;76.10;;;;;;4960647;28;20457;-80
2023/09/06 12:40:55;;;;;;;1.52;0.80;;;24.70;76.20;;;;;;4948150;28;20126;-80
2023/09/06 12:43:21;;;;;;;1.45;0.85;;;24.70;76.20;;;;;;4968040;28;20043;-80
2023/09/06 12:45:47;;;;;;;4.38;1.10;;;24.70;76.30;;;;;;4967483;28;20504;-79
2023/09/06 12:48:13;;;;;;;1.20;1.05;;;24.70;76.30;;;;;;4961746;28;20043;-80